Archival Weather

Chicago O'Hare International

Chicago, Illinois (KORD)

Report from: Wednesday, February 16, 2022 10:20 PM CST
Current time: Saturday, February 4, 2023 11:27 PM CST

Current weather
Weather history
Weather forecast

Present weatherRain, mist
Temperature8.9°C (48.0°F)
Dew point7.2°C (45.0°F)
Winds Calm
Visibility1.8 mi. (2.8 km)
Clouds Few clouds 700 ft. (213 m)
Ceiling: Broken clouds 2,000 ft. (610 m)
Overcast 3,600 ft. (1,097 m)
Altimeter29.78 in.Hg (1008 mB)
Precipitiation0.12 in. (3 mm)
Relative humidity89 %
Density altitude-422 ft. (-129 m)
Remarks Automated weather observing station with precipitation discriminator
Flight conditions Instrument Meteorological Conditions
Raw dataKORD 170420Z 00000KT 1 3/4SM R10L/6000VP6000FT RA BR FEW007 BKN020 OVC036 09/07 A2978 RMK AO2 P0012 T00890072
An unhandled exception has occurred. See browser dev tools for details. Reload 🗙